createdAt,value
2017-06-01T00:00:46.502Z,9.36
2017-06-01T00:03:15.601Z,10.92
2017-06-01T00:05:44.802Z,7.90
2017-06-01T00:08:13.907Z,15.54
2017-06-01T00:10:43.002Z,12.02
2017-06-01T00:13:12.059Z,9.48
2017-06-01T00:15:41.181Z,11.54
2017-06-01T00:18:10.309Z,9.30
2017-06-01T00:20:39.370Z,9.62
2017-06-01T00:23:08.486Z,10.26
2017-06-01T00:25:37.537Z,10.36
2017-06-01T00:28:07.435Z,8.96
2017-06-01T00:30:36.576Z,12.44
2017-06-01T00:33:05.672Z,11.52
2017-06-01T00:35:34.778Z,9.48
2017-06-01T00:38:03.827Z,6.16
2017-06-01T00:40:32.967Z,14.14
2017-06-01T00:43:02.012Z,8.62
2017-06-01T00:45:31.108Z,9.46
2017-06-01T00:48:00.254Z,13.86
2017-06-01T00:50:29.304Z,10.82
2017-06-01T00:52:58.473Z,17.42
2017-06-01T00:55:27.614Z,17.14
2017-06-01T00:57:56.802Z,10.56
2017-06-01T01:00:25.877Z,11.24
2017-06-01T01:02:54.924Z,12.32
2017-06-01T01:05:24.050Z,13.74
2017-06-01T01:07:53.167Z,9.14
2017-06-01T01:10:22.240Z,11.28
2017-06-01T01:12:51.333Z,15.30
2017-06-01T01:15:20.390Z,13.30
2017-06-01T01:17:49.533Z,15.10
2017-06-01T01:20:18.594Z,14.00
2017-06-01T01:22:47.724Z,9.48
2017-06-01T01:25:16.834Z,14.60
2017-06-01T01:27:45.914Z,12.04
2017-06-01T01:30:15.009Z,11.16
2017-06-01T01:32:44.073Z,15.28
2017-06-01T01:35:13.209Z,16.56
2017-06-01T01:37:42.270Z,12.50
2017-06-01T01:40:11.328Z,20.12
2017-06-01T01:42:40.393Z,9.56
2017-06-01T01:45:09.432Z,10.98
2017-06-01T01:47:38.514Z,10.90
2017-06-01T01:50:07.557Z,17.64
2017-06-01T01:52:36.677Z,17.78
2017-06-01T01:55:05.774Z,10.30
2017-06-01T01:57:34.859Z,17.90
2017-06-01T02:00:03.967Z,9.40
2017-06-01T02:02:33.004Z,10.32
2017-06-01T02:05:02.148Z,12.22
2017-06-01T02:07:31.245Z,12.24
2017-06-01T02:10:00.346Z,9.62
2017-06-01T02:12:29.435Z,9.10
2017-06-01T02:14:58.482Z,17.42
2017-06-01T02:17:27.573Z,11.02
2017-06-01T02:19:56.637Z,14.68
2017-06-01T02:22:25.734Z,12.44
2017-06-01T02:24:54.930Z,7.50
2017-06-01T02:27:24.014Z,12.06
2017-06-01T02:29:53.117Z,11.86
2017-06-01T02:32:22.316Z,12.22
2017-06-01T02:34:51.367Z,14.72
2017-06-01T02:37:20.453Z,10.28
2017-06-01T02:39:49.500Z,12.06
2017-06-01T02:42:18.599Z,15.12
2017-06-01T02:44:47.701Z,15.56
2017-06-01T02:47:16.754Z,17.22
2017-06-01T02:49:45.891Z,12.42
2017-06-01T02:52:14.960Z,11.62
2017-06-01T02:54:44.068Z,11.28
2017-06-01T02:57:13.165Z,16.38
2017-06-01T02:59:42.261Z,13.80
2017-06-01T03:02:11.356Z,14.18
2017-06-01T03:04:40.477Z,13.52
2017-06-01T03:07:09.566Z,12.98
2017-06-01T03:09:38.649Z,16.02
2017-06-01T03:12:07.708Z,18.32
2017-06-01T03:14:36.837Z,11.92
2017-06-01T03:17:05.880Z,12.82
2017-06-01T03:19:34.960Z,11.08
2017-06-01T03:22:04.024Z,12.86
2017-06-01T03:24:33.072Z,8.26
2017-06-01T03:27:02.198Z,13.54
2017-06-01T03:29:31.349Z,13.10
2017-06-01T03:32:00.418Z,14.76
2017-06-01T03:34:29.490Z,13.06
2017-06-01T03:36:58.537Z,9.50
2017-06-01T03:39:27.587Z,15.26
2017-06-01T03:41:56.665Z,10.72
2017-06-01T03:44:25.784Z,15.58
2017-06-01T03:46:54.825Z,9.78
2017-06-01T03:49:23.885Z,14.82
2017-06-01T03:51:52.973Z,12.64
2017-06-01T03:54:22.127Z,11.76
2017-06-01T03:56:51.175Z,11.70
2017-06-01T03:59:20.220Z,18.66
2017-06-01T04:01:49.353Z,15.06
2017-06-01T04:04:18.401Z,14.56
2017-06-01T04:06:47.498Z,19.20
2017-06-01T04:09:16.545Z,12.82
2017-06-01T04:11:45.638Z,11.74
2017-06-01T04:14:14.697Z,15.56
2017-06-01T04:16:43.835Z,15.62
2017-06-01T04:19:12.924Z,15.32
2017-06-01T04:21:42.025Z,14.36
2017-06-01T04:24:11.328Z,22.64
2017-06-01T04:26:40.440Z,13.76
2017-06-01T04:29:09.490Z,11.12
2017-06-01T04:31:38.711Z,23.12
2017-06-01T04:34:07.762Z,11.90
2017-06-01T04:36:36.906Z,17.48
2017-06-01T04:39:06.005Z,10.56
2017-06-01T04:41:35.060Z,19.66
2017-06-01T04:44:04.166Z,18.30
2017-06-01T04:46:33.222Z,13.00
2017-06-01T04:49:02.295Z,11.78
2017-06-01T04:51:31.376Z,14.58
2017-06-01T04:54:00.493Z,10.92
2017-06-01T04:56:29.686Z,11.42
2017-06-01T04:58:58.894Z,14.88
2017-06-01T05:01:27.901Z,10.14
2017-06-01T05:03:56.960Z,13.86
2017-06-01T05:06:26.014Z,11.72
2017-06-01T05:08:55.096Z,11.86
2017-06-01T05:11:24.140Z,12.14
2017-06-01T05:13:53.188Z,10.38
2017-06-01T05:16:22.261Z,12.72
2017-06-01T05:18:51.431Z,9.82
2017-06-01T05:21:20.577Z,14.32
2017-06-01T05:23:49.674Z,15.52
2017-06-01T05:26:18.769Z,14.72
2017-06-01T05:28:47.834Z,12.86
2017-06-01T05:31:16.961Z,15.76
2017-06-01T05:33:46.066Z,16.08
2017-06-01T05:36:15.103Z,20.38
2017-06-01T05:38:44.323Z,11.68
2017-06-01T05:41:13.377Z,13.46
2017-06-01T05:43:42.422Z,22.04
2017-06-01T05:46:11.545Z,20.08
2017-06-01T05:48:40.592Z,9.38
2017-06-01T05:51:09.645Z,14.86
2017-06-01T05:53:38.724Z,14.22
2017-06-01T05:56:07.820Z,15.96
2017-06-01T05:58:36.932Z,12.54
2017-06-01T06:01:05.981Z,12.38
2017-06-01T06:03:35.122Z,14.74
2017-06-01T06:06:04.194Z,18.80
2017-06-01T06:08:33.305Z,9.34
2017-06-01T06:11:02.392Z,10.12
2017-06-01T06:13:31.442Z,14.72
2017-06-01T06:16:00.588Z,17.94
2017-06-01T06:18:29.630Z,17.60
2017-06-01T06:20:58.694Z,15.42
2017-06-01T06:23:27.832Z,22.98
2017-06-01T06:25:56.919Z,12.90
2017-06-01T06:28:26.030Z,15.16
2017-06-01T06:30:55.095Z,14.60
2017-06-01T06:33:24.149Z,9.86
2017-06-01T06:35:53.232Z,16.32
2017-06-01T06:38:22.284Z,19.56
2017-06-01T06:40:51.421Z,10.64
2017-06-01T06:43:20.486Z,13.18
2017-06-01T06:45:49.592Z,14.54
2017-06-01T06:48:18.656Z,11.84
2017-06-01T06:50:47.781Z,9.64
2017-06-01T06:53:16.848Z,12.06
2017-06-01T06:55:45.888Z,10.02
2017-06-01T06:58:14.984Z,11.86
2017-06-01T07:00:44.057Z,19.20
2017-06-01T07:03:13.165Z,10.56
2017-06-01T07:05:42.248Z,10.90
2017-06-01T07:08:11.317Z,13.00
2017-06-01T07:10:40.408Z,14.34
2017-06-01T07:13:12.681Z,13.82
2017-06-01T07:15:44.620Z,11.60
2017-06-01T07:18:17.984Z,11.82
2017-06-01T07:20:48.470Z,19.78
2017-06-01T07:23:18.135Z,8.34
2017-06-01T07:25:50.461Z,11.08
2017-06-01T07:28:22.723Z,10.52
2017-06-01T07:30:59.073Z,8.94
2017-06-01T07:33:30.359Z,11.38
2017-06-01T07:36:04.999Z,9.24
2017-06-01T07:38:34.372Z,9.86
2017-06-01T07:41:06.016Z,9.70
2017-06-01T07:43:37.678Z,6.68
2017-06-01T07:46:09.644Z,7.46
2017-06-01T07:48:44.761Z,12.58
2017-06-01T07:51:17.027Z,11.18
2017-06-01T07:53:58.893Z,13.44
2017-06-01T07:56:35.825Z,10.54
2017-06-01T07:59:08.862Z,10.78
2017-06-01T08:01:40.149Z,17.34
2017-06-01T08:04:12.044Z,11.04
2017-06-01T08:06:45.221Z,11.96
2017-06-01T08:09:16.865Z,9.18
2017-06-01T08:11:51.621Z,18.32
2017-06-01T08:14:29.276Z,11.10
2017-06-01T08:17:04.339Z,13.04
2017-06-01T08:19:35.066Z,10.88
2017-06-01T08:22:04.558Z,11.34
2017-06-01T08:24:35.047Z,9.48
2017-06-01T08:27:11.965Z,12.38
2017-06-01T08:29:41.790Z,12.44
2017-06-01T08:32:14.383Z,12.68
2017-06-01T08:34:44.457Z,10.62
2017-06-01T08:37:19.202Z,8.70
2017-06-01T08:39:57.933Z,11.04
2017-06-01T08:42:27.656Z,10.72
2017-06-01T08:44:59.519Z,8.30
2017-06-01T08:47:30.546Z,10.46
2017-06-01T08:50:01.925Z,14.76
2017-06-01T08:52:35.343Z,9.98
2017-06-01T08:55:08.822Z,9.56
2017-06-01T08:57:40.916Z,8.94
2017-06-01T09:00:15.165Z,9.82
2017-06-01T09:02:44.459Z,6.14
2017-06-01T09:05:17.711Z,7.50
2017-06-01T09:07:48.662Z,10.26
2017-06-01T09:10:36.089Z,10.54
2017-06-01T09:13:06.878Z,8.18
2017-06-01T09:15:39.706Z,7.40
2017-06-01T09:18:10.230Z,6.56
2017-06-01T09:20:46.437Z,9.88
2017-06-01T09:23:17.968Z,8.92
2017-06-01T09:25:48.848Z,8.98
2017-06-01T09:28:20.095Z,10.74
2017-06-01T09:30:51.519Z,7.58
2017-06-01T09:33:25.880Z,14.16
2017-06-01T09:36:05.638Z,8.50
2017-06-01T09:38:37.036Z,6.78
2017-06-01T09:41:09.995Z,7.62
2017-06-01T09:43:40.437Z,9.14
2017-06-01T09:46:10.223Z,9.06
2017-06-01T09:48:39.959Z,7.08
2017-06-01T09:51:09.327Z,6.50
2017-06-01T09:53:40.472Z,11.34
2017-06-01T09:56:11.229Z,7.34
2017-06-01T09:58:43.656Z,6.36
2017-06-01T10:01:19.118Z,6.38
2017-06-01T10:03:50.842Z,10.06
2017-06-01T10:06:20.711Z,5.96
2017-06-01T10:08:55.399Z,9.38
2017-06-01T10:11:28.640Z,10.36
2017-06-01T10:14:03.602Z,6.66
2017-06-01T10:16:34.702Z,10.96
2017-06-01T10:19:04.969Z,10.94
2017-06-01T10:21:36.580Z,12.18
2017-06-01T10:26:47.692Z,4.66
2017-06-01T10:29:21.335Z,6.12
2017-06-01T10:31:55.716Z,8.44
2017-06-01T10:34:34.692Z,4.46
2017-06-01T10:37:05.019Z,6.40
2017-06-01T10:39:35.314Z,8.36
2017-06-01T10:42:06.384Z,7.62
2017-06-01T10:44:36.706Z,7.06
2017-06-01T10:47:08.421Z,12.92
2017-06-01T10:49:37.937Z,5.94
2017-06-01T10:52:08.899Z,6.16
2017-06-01T10:54:42.844Z,11.54
2017-06-01T10:57:18.426Z,9.22
2017-06-01T10:59:47.795Z,7.22
2017-06-01T11:02:18.564Z,8.46
2017-06-01T11:04:47.920Z,6.50
2017-06-01T11:07:20.082Z,10.36
2017-06-01T11:09:50.978Z,10.28
2017-06-01T11:12:20.829Z,6.74
2017-06-01T11:14:50.316Z,6.46
2017-06-01T11:17:19.550Z,4.46
2017-06-01T11:19:55.752Z,6.12
2017-06-01T11:22:26.448Z,5.22
2017-06-01T11:25:00.152Z,7.32
2017-06-01T11:27:30.272Z,6.90
2017-06-01T11:30:01.314Z,7.96
2017-06-01T11:32:31.571Z,6.26
2017-06-01T11:35:02.719Z,7.06
2017-06-01T11:37:33.564Z,7.08
2017-06-01T11:40:05.685Z,5.68
2017-06-01T11:42:35.612Z,5.22
2017-06-01T11:45:06.403Z,6.48
2017-06-01T11:47:37.404Z,7.98
2017-06-01T11:50:06.593Z,4.86
2017-06-01T11:52:35.683Z,7.52
2017-06-01T11:55:04.800Z,5.54
2017-06-01T11:57:33.876Z,4.42
2017-06-01T12:00:02.973Z,7.84
2017-06-01T12:02:32.067Z,6.70
2017-06-01T12:05:01.165Z,7.02
2017-06-01T12:07:30.275Z,5.64
2017-06-01T12:09:59.357Z,4.46
2017-06-01T12:12:28.409Z,4.92
2017-06-01T12:14:57.465Z,6.40
2017-06-01T12:17:26.500Z,6.12
2017-06-01T12:19:55.584Z,8.78
2017-06-01T12:22:24.642Z,3.54
2017-06-01T12:24:53.686Z,4.06
2017-06-01T12:27:22.741Z,4.52
2017-06-01T12:29:51.828Z,5.06
2017-06-01T12:32:20.911Z,5.12
2017-06-01T12:34:50.020Z,2.32
2017-06-01T12:37:19.207Z,4.38
2017-06-01T12:39:48.306Z,4.72
2017-06-01T12:42:17.407Z,4.22
2017-06-01T12:44:46.477Z,7.82
2017-06-01T12:47:15.517Z,5.92
2017-06-01T12:49:44.581Z,5.76
2017-06-01T12:52:13.709Z,4.72
2017-06-01T12:54:42.786Z,2.08
2017-06-01T12:57:11.873Z,3.38
2017-06-01T12:59:40.969Z,4.78
2017-06-01T13:02:10.080Z,4.16
2017-06-01T13:04:39.151Z,6.04
2017-06-01T13:07:08.187Z,3.60
2017-06-01T13:09:37.361Z,5.36
2017-06-01T13:12:06.405Z,2.64
2017-06-01T13:14:35.442Z,4.36
2017-06-01T13:17:04.546Z,5.56
2017-06-01T13:19:33.582Z,7.78
2017-06-01T13:22:02.734Z,6.02
2017-06-01T13:24:31.831Z,3.76
2017-06-01T13:27:00.868Z,5.26
2017-06-01T13:29:29.927Z,4.36
2017-06-01T13:31:58.964Z,4.78
2017-06-01T13:34:28.087Z,3.26
2017-06-01T13:36:57.210Z,3.24
2017-06-01T13:39:26.306Z,6.10
2017-06-01T13:41:55.396Z,3.42
2017-06-01T13:44:24.434Z,3.24
2017-06-01T13:46:53.591Z,3.76
2017-06-01T13:49:22.702Z,2.92
2017-06-01T13:51:51.768Z,2.98
2017-06-01T13:54:20.816Z,4.54
2017-06-01T13:56:49.883Z,4.36
2017-06-01T13:59:18.974Z,4.92
2017-06-01T14:01:48.030Z,8.46
2017-06-01T14:04:17.069Z,4.54
2017-06-01T14:06:46.162Z,4.84
2017-06-01T14:09:15.258Z,4.56
2017-06-01T14:11:44.322Z,5.36
2017-06-01T14:14:13.445Z,3.36
2017-06-01T14:16:42.485Z,6.98
2017-06-01T14:19:11.615Z,4.58
2017-06-01T14:21:40.649Z,3.12
2017-06-01T14:24:09.721Z,5.10
2017-06-01T14:26:38.823Z,5.22
2017-06-01T14:29:07.918Z,2.62
2017-06-01T14:31:36.993Z,3.66
2017-06-01T14:34:06.030Z,3.72
2017-06-01T14:39:10.389Z,3.34
2017-06-01T14:41:39.436Z,3.72
2017-06-01T14:44:08.536Z,3.10
2017-06-01T14:46:37.633Z,3.66
2017-06-01T14:49:06.673Z,5.54
2017-06-01T14:51:35.761Z,3.28
2017-06-01T14:54:04.821Z,3.90
2017-06-01T14:56:34.622Z,5.84
2017-06-01T14:59:03.661Z,3.98
2017-06-01T15:01:32.720Z,3.90
2017-06-01T15:04:01.777Z,5.66
2017-06-01T15:06:30.912Z,2.60
2017-06-01T15:09:00.020Z,4.88
2017-06-01T15:11:29.122Z,4.40
2017-06-01T15:13:58.276Z,2.78
2017-06-01T15:16:27.313Z,4.62
2017-06-01T15:18:56.404Z,5.68
2017-06-01T15:21:25.490Z,4.78
2017-06-01T15:23:54.531Z,3.80
2017-06-01T15:26:23.589Z,3.72
2017-06-01T15:28:52.629Z,3.24
2017-06-01T15:31:21.712Z,4.72
2017-06-01T15:33:50.765Z,4.54
2017-06-01T15:36:19.863Z,6.16
2017-06-01T15:38:48.974Z,2.58
2017-06-01T15:41:18.048Z,2.52
2017-06-01T15:43:47.145Z,4.70
2017-06-01T15:46:16.190Z,5.32
2017-06-01T15:48:45.269Z,4.00
2017-06-01T15:51:14.321Z,3.74
2017-06-01T15:53:43.425Z,6.20
2017-06-01T15:56:12.608Z,2.78
2017-06-01T15:58:41.733Z,4.46
2017-06-01T16:01:10.765Z,3.42
2017-06-01T16:03:39.912Z,2.64
2017-06-01T16:06:08.964Z,3.90
2017-06-01T16:08:38.114Z,5.26
2017-06-01T16:11:07.257Z,4.50
2017-06-01T16:13:36.343Z,5.70
2017-06-01T16:16:05.418Z,2.82
2017-06-01T16:18:34.567Z,1.96
2017-06-01T16:21:03.622Z,4.08
2017-06-01T16:23:32.652Z,5.68
2017-06-01T16:26:02.404Z,5.54
2017-06-01T16:28:31.459Z,4.56
2017-06-01T16:31:00.551Z,5.00
2017-06-01T16:33:29.589Z,4.90
2017-06-01T16:35:58.663Z,5.46
2017-06-01T16:38:27.846Z,3.28
2017-06-01T16:40:56.907Z,2.74
2017-06-01T16:43:26.570Z,2.54
2017-06-01T16:45:55.616Z,3.18
2017-06-01T16:48:24.938Z,5.24
2017-06-01T16:50:53.992Z,2.82
2017-06-01T16:53:23.120Z,3.62
2017-06-01T16:55:52.593Z,5.60
2017-06-01T16:58:21.650Z,6.98
2017-06-01T17:00:50.857Z,4.38
2017-06-01T17:03:19.951Z,4.70
2017-06-01T17:05:48.993Z,4.28
2017-06-01T17:08:18.111Z,4.78
2017-06-01T17:10:47.145Z,4.84
2017-06-01T17:13:16.234Z,4.12
2017-06-01T17:15:45.293Z,4.16
2017-06-01T17:18:14.527Z,3.62
2017-06-01T17:20:43.619Z,5.62
2017-06-01T17:23:12.733Z,5.14
2017-06-01T17:25:41.807Z,4.46
2017-06-01T17:28:12.218Z,6.02
2017-06-01T17:30:41.312Z,5.00
2017-06-01T17:33:10.387Z,3.72
2017-06-01T17:35:40.465Z,3.62
2017-06-01T17:38:09.527Z,2.50
2017-06-01T17:40:38.739Z,4.72
2017-06-01T17:43:07.826Z,5.16
2017-06-01T17:45:36.867Z,5.28
2017-06-01T17:48:06.712Z,4.70
2017-06-01T17:50:35.750Z,4.32
2017-06-01T17:53:04.968Z,3.80
2017-06-01T17:55:34.056Z,3.40
2017-06-01T17:58:03.124Z,5.80
2017-06-01T18:00:33.057Z,6.10
2017-06-01T18:03:02.118Z,4.44
2017-06-01T18:05:31.335Z,4.30
2017-06-01T18:08:00.386Z,3.40
2017-06-01T18:10:29.443Z,4.38
2017-06-01T18:12:58.518Z,4.82
2017-06-01T18:15:27.579Z,3.12
2017-06-01T18:17:56.675Z,3.94
2017-06-01T18:20:25.718Z,5.76
2017-06-01T18:22:54.766Z,2.94
2017-06-01T18:25:23.818Z,4.04
2017-06-01T18:27:52.861Z,3.82
2017-06-01T18:30:22.012Z,3.28
2017-06-01T18:32:51.097Z,5.46
2017-06-01T18:35:20.142Z,5.50
2017-06-01T18:37:49.284Z,3.84
2017-06-01T18:40:18.373Z,3.50
2017-06-01T18:42:47.489Z,4.54
2017-06-01T18:45:16.578Z,4.38
2017-06-01T18:47:45.660Z,3.98
2017-06-01T18:50:14.735Z,2.56
2017-06-01T18:52:43.874Z,5.00
2017-06-01T18:55:12.911Z,6.24
2017-06-01T18:57:42.053Z,4.62
2017-06-01T19:00:11.145Z,2.40
2017-06-01T19:02:40.260Z,3.48
2017-06-01T19:05:09.320Z,2.94
2017-06-01T19:07:38.438Z,3.54
2017-06-01T19:10:07.533Z,4.98
2017-06-01T19:12:36.649Z,6.48
2017-06-01T19:15:05.700Z,4.90
2017-06-01T19:17:34.766Z,7.74
2017-06-01T19:20:03.851Z,6.12
2017-06-01T19:22:32.941Z,4.70
2017-06-01T19:25:01.998Z,4.50
2017-06-01T19:27:31.105Z,6.38
2017-06-01T19:30:00.208Z,4.90
2017-06-01T19:32:29.256Z,8.12
2017-06-01T19:34:58.348Z,5.72
2017-06-01T19:37:27.384Z,7.16
2017-06-01T19:39:56.442Z,5.02
2017-06-01T19:42:25.572Z,3.66
2017-06-01T19:44:55.540Z,5.46
2017-06-01T19:47:24.649Z,7.36
2017-06-01T19:49:53.714Z,6.12
2017-06-01T19:52:22.753Z,8.22
2017-06-01T19:54:51.886Z,6.62
2017-06-01T19:57:20.969Z,7.82
2017-06-01T19:59:50.058Z,6.92
2017-06-01T20:02:19.158Z,6.00
2017-06-01T20:04:48.254Z,5.40
2017-06-01T20:07:17.331Z,8.00
2017-06-01T20:09:46.458Z,6.98
2017-06-01T20:12:15.529Z,7.46
2017-06-01T20:14:44.636Z,9.02
2017-06-01T20:17:13.675Z,6.06
2017-06-01T20:19:42.828Z,8.98
2017-06-01T20:22:11.933Z,7.90
2017-06-01T20:24:41.026Z,8.26
2017-06-01T20:27:10.134Z,7.26
2017-06-01T20:29:39.338Z,6.74
2017-06-01T20:32:08.441Z,5.08
2017-06-01T20:34:37.490Z,7.00
2017-06-01T20:37:06.644Z,5.48
2017-06-01T20:39:35.720Z,7.24
2017-06-01T20:42:04.777Z,5.50
2017-06-01T20:44:33.912Z,6.60
2017-06-01T20:47:02.988Z,5.94
2017-06-01T20:49:32.042Z,5.96
2017-06-01T20:52:01.077Z,7.62
2017-06-01T20:54:30.190Z,8.26
2017-06-01T20:56:59.277Z,8.46
2017-06-01T20:59:28.571Z,7.10
2017-06-01T21:01:57.606Z,8.00
2017-06-01T21:04:26.658Z,4.14
2017-06-01T21:06:55.726Z,5.44
2017-06-01T21:09:24.773Z,6.86
2017-06-01T21:11:53.848Z,8.86
2017-06-01T21:14:22.910Z,9.04
2017-06-01T21:16:51.959Z,7.28
2017-06-01T21:19:21.042Z,7.28
2017-06-01T21:21:50.136Z,10.62
2017-06-01T21:24:19.198Z,5.54
2017-06-01T21:26:48.422Z,5.00
2017-06-01T21:29:17.528Z,7.86
2017-06-01T21:31:46.568Z,4.04
2017-06-01T21:34:15.618Z,12.88
2017-06-01T21:36:44.684Z,7.22
2017-06-01T21:39:13.809Z,6.66
2017-06-01T21:41:42.913Z,5.80
2017-06-01T21:44:11.996Z,8.78
2017-06-01T21:46:41.045Z,6.42
2017-06-01T21:49:10.110Z,4.12
2017-06-01T21:51:39.141Z,7.56
2017-06-01T21:54:08.234Z,9.72
2017-06-01T21:56:37.283Z,7.24
2017-06-01T21:59:06.316Z,7.00
2017-06-01T22:01:35.384Z,4.48
2017-06-01T22:04:04.541Z,9.20
2017-06-01T22:06:33.610Z,7.70
2017-06-01T22:09:02.748Z,9.66
2017-06-01T22:11:31.873Z,7.04
2017-06-01T22:14:00.916Z,6.98
2017-06-01T22:16:29.957Z,6.54
2017-06-01T22:18:59.024Z,7.16
2017-06-01T22:21:28.125Z,5.40
2017-06-01T22:23:57.204Z,7.26
2017-06-01T22:26:26.250Z,8.04
2017-06-01T22:28:55.326Z,6.16
2017-06-01T22:31:24.426Z,6.44
2017-06-01T22:33:53.661Z,4.30
2017-06-01T22:36:22.810Z,6.02
2017-06-01T22:38:51.914Z,6.70
2017-06-01T22:41:20.974Z,5.54
2017-06-01T22:43:50.139Z,4.14
2017-06-01T22:46:19.189Z,6.34
2017-06-01T22:48:48.292Z,8.48
2017-06-01T22:51:17.333Z,7.22
2017-06-01T22:53:46.432Z,5.00
2017-06-01T22:56:15.492Z,6.32
2017-06-01T22:58:44.819Z,9.70
2017-06-01T23:01:13.913Z,7.18
2017-06-01T23:03:42.958Z,6.84
2017-06-01T23:06:12.011Z,7.62
2017-06-01T23:08:41.072Z,5.58
2017-06-01T23:11:10.201Z,6.32
2017-06-01T23:13:39.306Z,6.04
2017-06-01T23:16:08.358Z,9.44
2017-06-01T23:18:37.484Z,11.12
2017-06-01T23:21:06.557Z,9.00
2017-06-01T23:23:35.598Z,7.94
2017-06-01T23:26:04.685Z,7.48
2017-06-01T23:28:33.749Z,6.64
2017-06-01T23:31:02.832Z,7.38
2017-06-01T23:33:31.873Z,7.30
2017-06-01T23:36:00.968Z,8.34
2017-06-01T23:38:30.021Z,6.46
2017-06-01T23:40:59.164Z,4.82
2017-06-01T23:43:28.292Z,7.96
2017-06-01T23:45:57.387Z,8.56
2017-06-01T23:48:26.434Z,8.10
2017-06-01T23:50:55.583Z,8.06
2017-06-01T23:53:24.622Z,7.54
2017-06-01T23:55:53.709Z,13.36
2017-06-01T23:58:22.773Z,8.74
